x

Pi-745 Tabs K (42045) Weather Station

4:00am - Sun 28th May 2017 All times are CDT. -5 hours from GMT.

  • Wind
    16mph, 20mph gusts
  • Sea Temp 81°f
  • Air Temp 80°f
  • Sea Pressure 1009.7mb
  • Pi-745 Tabs K
  • Pi-745 Tabs K

More Historic Weather Station data

Upgrade to MSW Pro to gain access to the past 30 days of data for over 8000 Wavebouys and Weather Stations around the globe.

Join Pro

Comparision Forecast

View Surf forecast
   
Sun 05/28 4:00am 16 20 mph 1009.7mb 81f 80f
2:00am 18 20 mph 1011.1mb 81f 80f
1:00am 18 22 mph 1011.5mb 81f 80f
12:00am 20 25 mph 1011.8mb 81f 80f
Sat 05/27 11:00pm 18 25 mph 1011.8mb 81f 80f
6:00pm 18 22 mph 1010.1mb 81f 80f
5:00pm 18 20 mph 1010.6mb 81f 80f
4:00pm 13 18 mph 1011mb 81f 80f
3:00pm 13 18 mph 1011.8mb 81f 80f
2:00pm 13 18 mph 1012.4mb 81f 80f
1:00pm 13 18 mph 1012.9mb 81f 80f
12:00pm 13 18 mph 1013.4mb 80f 80f
11:00am 16 20 mph 1013.3mb 80f 80f
10:00am 16 22 mph 1013.2mb 80f 80f
9:00am 18 22 mph 1012.7mb 80f 80f
8:00am 18 25 mph 1012.5mb 80f 79f
7:00am 18 22 mph 1012.3mb 80f 79f
6:00am 18 25 mph 1011.3mb 80f 79f
5:00am 18 25 mph 1011.4mb 80f 79f
4:00am 20 25 mph 1011.1mb 80f 79f
3:00am 20 27 mph 1011.2mb 80f 79f
2:00am 22 29 mph 1011.6mb 80f 79f
1:00am 20 25 mph 1011.6mb 80f 79f
12:00am 20 25 mph 1012.3mb 80f 79f
Fri 05/26 11:00pm 18 22 mph 1012.3mb 80f 79f
6:00pm 16 20 mph 1009.9mb 81f 80f
5:00pm 16 20 mph 1009.9mb 81f 80f
4:00pm 16 18 mph 1010.2mb 81f 80f
3:00pm 16 20 mph 1010.5mb 81f 80f
2:00pm 16 20 mph 1010.8mb 81f 80f
1:00pm 18 22 mph 1011.2mb 80f 80f
12:00pm 20 27 mph 1010.8mb 80f 79f
11:00am 22 29 mph 1010.7mb 80f 79f
10:00am 22 27 mph 1010.5mb 80f 79f
9:00am 22 29 mph 1010.5mb 80f 80f
8:00am 22 27 mph 1010.4mb 80f 79f
7:00am 20 25 mph 1009.8mb 80f 79f
6:00am 20 27 mph 1009.8mb 80f 79f
5:00am 22 27 mph 1008.5mb 80f 79f
4:00am 22 31 mph 1008.8mb 80f 79f
3:00am 22 27 mph 1009.4mb 79f 79f
2:00am 25 29 mph 1009.8mb 79f 78f
1:00am 22 29 mph 1009.7mb 79f 78f
12:00am 22 29 mph 1009.6mb 79f 78f
Thu 05/25 11:00pm 20 27 mph 1009.6mb 79f 78f
6:00pm 20 27 mph 1007.2mb 80f 78f
5:00pm 20 25 mph 1007.5mb 79f 78f
4:00pm 20 25 mph 1008.4mb 79f 78f
3:00pm 18 22 mph 1008.9mb 79f 78f
2:00pm 20 25 mph 1009.5mb 79f 78f
1:00pm 18 22 mph 1010.2mb 79f 77f
12:00pm 18 25 mph 1010.5mb 79f 77f
11:00am 20 25 mph 1010.5mb 80f 77f
10:00am 18 22 mph 1010.4mb 80f 77f
9:00am 16 22 mph 1010.4mb 80f 77f
8:00am 18 22 mph 1009.9mb 80f 77f
7:00am 18 25 mph 1009.4mb 80f 76f
5:00am 20 25 mph 1008.8mb 80f 75f
3:00am 20 27 mph 1009.1mb 80f 75f
2:00am 18 22 mph 1009.2mb 80f 76f
1:00am 16 18 mph 1009.8mb 80f 75f
12:00am 11 16 mph 1010mb 80f 75f
Wed 05/24 11:00pm 9 11 mph 1010mb 80f 75f
6:00pm 9 13 mph 1008.9mb 80f 74f
4:00pm 11 16 mph 1010.3mb 80f 73f
3:00pm 11 16 mph 1011.1mb 80f 73f
2:00pm 16 20 mph 1011.4mb 80f 72f
1:00pm 16 22 mph 1012.2mb 80f 72f
12:00pm 18 25 mph 1012.4mb 80f 72f
11:00am 18 25 mph 1012.9mb 80f 71f